Time;durP1;ratioP1;P1;durP2;ratioP2;P2;SDS_P1;SDS_P2;PMS_P1;PMS_P2;Temp;Humidity;BMP_temperature;BMP_pressure;BME280_temperature;BME280_humidity;BME280_pressure;Samples;Min_cycle;Max_cycle;Signal;HPM_P1;HPM_P2
2024/03/13 00:00:17;;;;;;;19.73;11.18;;;;;;;7.91;75.60;96682.84;4973793;28;20062;-80
2024/03/13 00:02:45;;;;;;;21.75;10.68;;;;;;;7.92;74.88;96681.88;4977492;28;20050;-80
2024/03/13 00:05:13;;;;;;;18.30;11.13;;;;;;;7.85;74.74;96684.31;4977282;28;20057;-80
2024/03/13 00:07:42;;;;;;;19.10;11.43;;;;;;;7.80;75.16;96678.78;4977402;28;20043;-79
2024/03/13 00:10:10;;;;;;;19.40;11.23;;;;;;;7.76;75.24;96675.72;4977179;28;20082;-80
2024/03/13 00:12:38;;;;;;;21.20;12.90;;;;;;;7.73;75.46;96668.22;4977358;28;20051;-80
2024/03/13 00:15:07;;;;;;;23.15;13.55;;;;;;;7.68;75.37;96674.91;4991183;28;20083;-80
2024/03/13 00:17:34;;;;;;;22.25;12.32;;;;;;;7.69;75.63;96671.31;4997033;28;20055;-80
2024/03/13 00:20:03;;;;;;;20.58;11.50;;;;;;;7.69;75.44;96674.72;4997001;28;20047;-80
2024/03/13 00:22:31;;;;;;;22.13;12.85;;;;;;;7.65;75.61;96668.22;4986091;28;20081;-80
2024/03/13 00:25:00;;;;;;;20.40;11.32;;;;;;;7.62;76.32;96671.16;4980427;28;20054;-80
2024/03/13 00:27:28;;;;;;;18.92;10.73;;;;;;;7.65;76.18;96668.22;4978055;28;20055;-80
2024/03/13 00:29:55;;;;;;;18.30;11.10;;;;;;;7.67;76.12;96665.47;4977974;28;20058;-80
2024/03/13 00:32:24;;;;;;;14.10;9.50;;;;;;;7.67;76.17;96668.88;4977374;28;20101;-79
2024/03/13 00:34:52;;;;;;;16.67;9.98;;;;;;;7.71;76.18;96666.78;4977111;28;20050;-80
2024/03/13 00:37:21;;;;;;;17.15;10.40;;;;;;;7.74;76.60;96666.44;4977334;28;20487;-80
2024/03/13 00:39:49;;;;;;;14.93;9.50;;;;;;;7.77;76.49;96656.56;4977297;28;20130;-80
2024/03/13 00:42:18;;;;;;;14.43;9.30;;;;;;;7.83;76.28;96655.91;4977257;28;20054;-80
2024/03/13 00:44:46;;;;;;;15.48;9.10;;;;;;;7.89;75.72;96648.44;4977299;28;20054;-80
2024/03/13 00:47:14;;;;;;;13.82;8.93;;;;;;;7.92;76.53;96645.53;4976978;28;20554;-80
2024/03/13 00:49:42;;;;;;;10.77;6.55;;;;;;;7.94;76.04;96646.16;4977133;28;20057;-80
2024/03/13 00:52:10;;;;;;;8.50;5.60;;;;;;;7.96;75.43;96645.03;4977200;28;20518;-79
2024/03/13 00:54:44;;;;;;;7.85;4.97;;;;;;;7.95;74.52;96647.78;4976639;28;20083;-79
2024/03/13 00:57:12;;;;;;;7.85;5.18;;;;;;;7.95;75.71;96645.97;4982263;28;20057;-81
2024/03/13 00:59:41;;;;;;;7.78;5.00;;;;;;;7.94;74.62;96648.75;4981163;28;20142;-79
2024/03/13 01:02:09;;;;;;;10.00;5.43;;;;;;;7.94;74.83;96646.16;4979632;28;20055;-80
2024/03/13 01:04:37;;;;;;;10.85;6.22;;;;;;;7.90;73.82;96639.69;4980172;28;20051;-80
2024/03/13 01:07:06;;;;;;;10.75;6.47;;;;;;;7.83;73.75;96642.91;4979351;28;20093;-80
2024/03/13 01:09:34;;;;;;;8.35;5.05;;;;;;;7.77;73.49;96640.97;4978735;28;20499;-80
2024/03/13 01:12:02;;;;;;;10.40;5.70;;;;;;;7.71;73.84;96646.81;4978914;28;20050;-79
2024/03/13 01:14:30;;;;;;;10.35;5.88;;;;;;;7.67;74.04;96637.72;4978430;28;20078;-80
2024/03/13 01:17:00;;;;;;;7.47;4.78;;;;;;;7.66;74.37;96637.91;4977854;28;20082;-79
2024/03/13 01:19:30;;;;;;;7.50;4.22;;;;;;;7.64;74.11;96635.47;4976971;28;20051;-80
2024/03/13 01:22:04;;;;;;;6.63;3.67;;;;;;;7.62;74.39;96634.81;4977589;28;20069;-80
2024/03/13 01:24:33;;;;;;;6.30;3.75;;;;;;;7.62;74.61;96627.81;4977097;28;20098;-80
2024/03/13 01:27:01;;;;;;;4.93;3.42;;;;;;;7.66;74.10;96633.50;4987198;28;20522;-80
2024/03/13 01:29:28;;;;;;;5.47;3.28;;;;;;;7.69;74.94;96638.38;4990386;28;20047;-80
2024/03/13 01:31:57;;;;;;;6.28;3.65;;;;;;;7.74;75.64;96636.13;4982901;28;20061;-80
2024/03/13 01:34:27;;;;;;;3.83;2.65;;;;;;;7.79;75.96;96633.81;4977143;28;20063;-80
2024/03/13 01:39:40;;;;;;;5.18;3.13;;;;;;;7.84;75.05;96626.34;4975952;28;20594;-80
2024/03/13 01:56:22;;;;;;;3.35;2.50;;;;;;;7.81;73.26;96618.91;4975848;28;20106;-80
2024/03/13 01:59:02;;;;;;;2.83;2.08;;;;;;;7.78;74.05;96616.66;4975739;28;20046;-80
2024/03/13 02:04:15;;;;;;;2.42;2.13;;;;;;;7.78;74.79;96614.03;4975816;28;20491;-80
2024/03/13 02:06:46;;;;;;;4.03;2.67;;;;;;;7.78;75.63;96616.66;4975519;28;20051;-79
2024/03/13 02:09:15;;;;;;;3.03;1.90;;;;;;;7.77;73.79;96615.00;4975551;28;20503;-77
2024/03/13 02:11:43;;;;;;;3.25;2.45;;;;;;;7.71;73.66;96610.47;4975719;28;20051;-78
2024/03/13 02:14:11;;;;;;;3.80;2.40;;;;;;;7.68;74.04;96610.00;4975562;28;20046;-78
2024/03/13 02:16:38;;;;;;;3.60;2.35;;;;;;;7.65;73.39;96605.91;4975461;28;20129;-78
2024/03/13 02:19:07;;;;;;;1.80;1.65;;;;;;;7.58;72.97;96600.56;4975714;28;20051;-78
2024/03/13 02:22:17;;;;;;;2.83;2.00;;;;;;;7.53;72.85;96610.63;4976618;28;20503;-79
2024/03/13 02:25:20;;;;;;;5.88;3.05;;;;;;;7.59;75.61;96616.97;4972859;28;20094;-79
2024/03/13 02:48:31;;;;;;;;;;;;;;;7.73;74.44;96598.13;4988413;28;20090;-79
2024/03/13 03:04:13;;;;;;;1.27;1.10;;;;;;;7.73;72.52;96589.53;5317380;23;20062;-79
2024/03/13 03:06:41;;;;;;;1.55;1.42;;;;;;;7.69;72.87;96586.44;4957381;28;20141;-79
2024/03/13 03:09:10;;;;;;;1.55;1.27;;;;;;;7.71;73.30;96587.09;4957760;28;20055;-79
2024/03/13 03:11:38;;;;;;;1.63;1.50;;;;;;;7.70;74.31;96582.88;4957326;28;20050;-79
2024/03/13 03:14:05;;;;;;;1.05;0.85;;;;;;;7.68;72.70;96577.03;4956800;28;20422;-79
2024/03/13 03:18:59;;;;;;;2.58;1.35;;;;;;;7.56;72.34;96584.34;5067525;23;20050;-78
2024/03/13 03:21:27;;;;;;;2.08;1.38;;;;;;;7.49;72.27;96585.97;4976607;28;20453;-81
2024/03/13 03:23:57;;;;;;;4.13;2.17;;;;;;;7.46;72.69;96582.91;4976948;28;20137;-81
2024/03/13 03:26:28;;;;;;;1.52;1.27;;;;;;;7.42;72.98;96583.22;4976570;28;20065;-81
2024/03/13 03:28:56;;;;;;;1.38;1.00;;;;;;;7.40;72.88;96582.56;4972871;28;20050;-81
2024/03/13 03:31:24;;;;;;;1.38;0.68;;;;;;;7.34;73.69;96590.19;4972828;28;20495;-81
2024/03/13 03:33:52;;;;;;;1.55;1.20;;;;;;;7.31;74.97;96583.53;4972673;28;20105;-81
2024/03/13 03:36:20;;;;;;;0.82;0.80;;;;;;;7.33;75.00;96586.78;4972606;28;20047;-81
2024/03/13 03:38:48;;;;;;;0.55;0.55;;;;;;;7.33;73.20;96586.78;4974339;28;20510;-82
2024/03/13 03:41:16;;;;;;;1.90;1.23;;;;;;;7.35;73.69;96590.03;4973356;28;20085;-81
2024/03/13 03:43:44;;;;;;;1.10;0.98;;;;;;;7.33;72.98;96586.78;4972967;28;20050;-81
2024/03/13 03:46:14;;;;;;;1.45;1.35;;;;;;;7.29;72.67;96582.88;4972843;28;20109;-82
2024/03/13 03:48:42;;;;;;;2.08;1.20;;;;;;;7.22;72.72;96590.50;4975687;28;20046;-81
2024/03/13 03:51:16;;;;;;;1.42;1.33;;;;;;;7.16;72.26;96592.94;4972741;28;20046;-81
2024/03/13 03:53:44;;;;;;;3.33;1.67;;;;;;;7.05;72.20;96588.06;4972921;28;20051;-81
2024/03/13 03:56:13;;;;;;;1.52;1.15;;;;;;;6.93;72.76;96579.75;4972600;28;20108;-81
2024/03/13 03:58:42;;;;;;;2.05;1.67;;;;;;;6.88;74.12;96576.81;4972698;28;20057;-81
2024/03/13 04:01:11;;;;;;;2.15;1.63;;;;;;;6.89;74.52;96576.69;4972512;28;20137;-81
2024/03/13 04:03:41;;;;;;;2.20;1.80;;;;;;;6.90;73.33;96580.88;4972529;28;20055;-81
2024/03/13 04:06:08;;;;;;;2.47;1.60;;;;;;;6.82;73.18;96591.22;4972492;28;20051;-81
2024/03/13 04:08:36;;;;;;;2.17;1.85;;;;;;;6.76;73.10;96584.91;4972460;28;20085;-81
2024/03/13 04:11:04;;;;;;;1.83;1.58;;;;;;;6.69;72.63;96583.09;4972318;28;20082;-81
2024/03/13 04:13:32;;;;;;;1.92;1.70;;;;;;;6.60;72.62;96588.28;4972399;28;20058;-81
2024/03/13 04:16:04;;;;;;;2.97;1.45;;;;;;;6.52;72.58;96584.84;4972185;28;20501;-81
2024/03/13 04:18:32;;;;;;;1.83;1.50;;;;;;;6.47;72.68;96582.72;4972260;28;20050;-81
2024/03/13 04:21:00;;;;;;;1.77;1.42;;;;;;;6.38;72.59;96581.03;4972164;28;20495;-81
2024/03/13 04:23:29;;;;;;;2.03;1.77;;;;;;;6.28;72.87;96585.56;4972667;28;20058;-81
2024/03/13 04:25:57;;;;;;;1.70;1.42;;;;;;;6.23;73.01;96580.00;4972330;28;20054;-81
2024/03/13 04:28:25;;;;;;;1.52;1.30;;;;;;;6.18;73.68;96591.63;4972357;28;20239;-81
2024/03/13 04:30:53;;;;;;;2.33;1.27;;;;;;;6.12;73.71;96587.09;4983253;28;20061;-81
2024/03/13 04:33:22;;;;;;;1.40;0.80;;;;;;;6.06;73.67;96590.28;4995067;28;20067;-81
2024/03/13 04:35:50;;;;;;;1.38;1.20;;;;;;;6.03;73.65;96592.38;4987501;28;20050;-81
2024/03/13 04:38:18;;;;;;;1.20;1.10;;;;;;;5.94;73.55;96592.31;4974823;28;20109;-81
2024/03/13 04:40:46;;;;;;;0.98;0.98;;;;;;;5.87;74.06;96593.06;4972783;28;20051;-81
2024/03/13 04:43:14;;;;;;;1.10;1.00;;;;;;;5.78;74.10;96590.41;4972714;28;20051;-81
2024/03/13 04:45:42;;;;;;;1.13;1.02;;;;;;;5.73;74.29;96590.06;4972277;28;20051;-81
2024/03/13 04:48:10;;;;;;;1.10;0.85;;;;;;;5.69;74.76;96593.91;4975486;28;20047;-81
2024/03/13 04:50:38;;;;;;;1.60;1.20;;;;;;;5.68;75.05;96594.06;4975989;28;20057;-81
2024/03/13 04:53:06;;;;;;;2.15;1.10;;;;;;;5.69;74.69;96593.09;4975945;28;20510;-81
2024/03/13 04:55:34;;;;;;;1.50;1.10;;;;;;;5.67;74.97;96584.69;4976043;28;20081;-81
2024/03/13 04:58:02;;;;;;;2.75;1.25;;;;;;;5.63;74.91;96591.91;4975914;28;20137;-81
2024/03/13 05:00:30;;;;;;;1.25;1.13;;;;;;;5.64;74.85;96593.56;4976294;28;20059;-81
2024/03/13 05:02:57;;;;;;;1.60;1.30;;;;;;;5.63;75.05;96581.56;4975679;28;20511;-81
2024/03/13 05:05:25;;;;;;;2.42;1.35;;;;;;;5.62;74.69;96586.88;4975374;28;20109;-81
2024/03/13 05:07:53;;;;;;;3.67;2.05;;;;;;;5.58;75.37;96583.81;4975696;28;20055;-81
2024/03/13 05:10:29;;;;;;;5.90;2.92;;;;;;;5.58;75.18;96584.63;4976293;28;20050;-81
2024/03/13 05:12:57;;;;;;;6.43;2.60;;;;;;;5.59;75.36;96598.34;4975549;28;20057;-81
2024/03/13 05:15:26;;;;;;;7.10;2.60;;;;;;;5.58;75.12;96594.16;4975793;28;20483;-81
2024/03/13 05:17:55;;;;;;;5.50;2.75;;;;;;;5.52;74.82;96594.75;4976767;28;20054;-81
2024/03/13 05:20:23;;;;;;;2.67;1.92;;;;;;;5.48;75.16;96604.56;4975626;28;20065;-81
2024/03/13 05:22:51;;;;;;;4.03;1.80;;;;;;;5.46;75.19;96606.50;4975672;28;20050;-81
2024/03/13 05:25:22;;;;;;;1.52;1.40;;;;;;;5.46;75.24;96603.09;4975053;28;20061;-81
2024/03/13 05:27:50;;;;;;;1.80;1.17;;;;;;;5.47;74.71;96604.75;4975000;28;20053;-81
2024/03/13 05:30:17;;;;;;;1.08;0.98;;;;;;;5.39;75.19;96599.50;4975081;28;20153;-81
2024/03/13 05:32:45;;;;;;;2.20;1.27;;;;;;;5.32;75.35;96602.69;4975351;28;20187;-81
2024/03/13 05:35:14;;;;;;;1.73;1.25;;;;;;;5.27;75.31;96607.50;4975080;28;20396;-81
2024/03/13 05:37:42;;;;;;;2.33;1.50;;;;;;;5.23;75.62;96611.34;4975189;28;20051;-81
2024/03/13 05:40:16;;;;;;;1.75;1.20;;;;;;;5.21;75.32;96615.84;4975394;28;20050;-81
2024/03/13 05:42:44;;;;;;;1.25;1.10;;;;;;;5.21;75.93;96610.66;4975168;28;20051;-81
2024/03/13 05:45:13;;;;;;;2.45;1.67;;;;;;;5.22;75.91;96616.66;4974918;28;20133;-80
2024/03/13 05:47:41;;;;;;;2.28;1.70;;;;;;;5.26;75.70;96623.16;4975243;28;20458;-80
2024/03/13 05:50:09;;;;;;;3.63;1.48;;;;;;;5.29;75.56;96628.84;4975241;28;20053;-81
2024/03/13 05:52:37;;;;;;;2.15;1.60;;;;;;;5.31;75.56;96624.34;4974970;28;20051;-81
2024/03/13 05:55:05;;;;;;;2.50;2.00;;;;;;;5.28;75.55;96626.41;4975251;28;20109;-82
2024/03/13 05:57:34;;;;;;;3.25;2.30;;;;;;;5.27;75.73;96630.78;4972192;28;20110;-80
2024/03/13 06:00:07;;;;;;;3.45;2.47;;;;;;;5.25;75.61;96627.50;4940018;28;20423;-82
2024/03/13 06:02:35;;;;;;;2.53;2.08;;;;;;;5.25;75.72;96629.28;4970759;28;20111;-81
2024/03/13 06:05:09;;;;;;;4.03;2.80;;;;;;;5.23;75.67;96633.81;4971781;28;20110;-80
2024/03/13 06:07:37;;;;;;;4.03;2.50;;;;;;;5.19;75.61;96635.06;4973192;28;20482;-79
2024/03/13 06:10:06;;;;;;;3.50;2.75;;;;;;;5.13;75.63;96636.44;4963342;28;20094;-79
2024/03/13 06:12:34;;;;;;;2.67;2.03;;;;;;;5.13;76.05;96637.25;4940819;29;20079;-79
2024/03/13 06:15:06;;;;;;;3.63;2.40;;;;;;;5.15;75.38;96634.53;4948458;28;20047;-79
2024/03/13 06:17:34;;;;;;;2.65;2.00;;;;;;;5.16;75.43;96631.78;4957449;28;20102;-79
2024/03/13 06:20:06;;;;;;;2.83;1.90;;;;;;;5.14;75.54;96631.13;4972899;28;20073;-79
2024/03/13 06:22:35;;;;;;;3.03;1.50;;;;;;;5.14;75.51;96645.84;4953739;28;20055;-78
2024/03/13 06:25:06;;;;;;;4.40;1.90;;;;;;;5.09;75.85;96645.44;4945789;29;20058;-78
2024/03/13 06:27:34;;;;;;;2.55;1.77;;;;;;;5.08;75.72;96643.84;4957549;28;20446;-78
2024/03/13 06:30:01;;;;;;;2.38;1.85;;;;;;;5.11;75.99;96643.53;4970801;28;20483;-79
2024/03/13 06:32:29;;;;;;;2.50;2.25;;;;;;;5.10;75.73;96640.13;4964411;28;20547;-82
2024/03/13 06:34:57;;;;;;;2.53;2.08;;;;;;;5.05;76.02;96641.53;4958650;28;20051;-78
2024/03/13 06:37:25;;;;;;;2.72;2.38;;;;;;;5.04;75.90;96632.16;4955916;28;20224;-79
2024/03/13 06:39:53;;;;;;;2.10;1.85;;;;;;;5.04;75.83;96645.09;4970813;28;20070;-79
2024/03/13 06:42:21;;;;;;;2.55;1.77;;;;;;;5.03;76.21;96630.50;4973209;28;20165;-78
2024/03/13 06:44:49;;;;;;;3.50;2.05;;;;;;;5.09;76.34;96645.44;4976697;28;20065;-78
2024/03/13 06:47:21;;;;;;;1.70;1.52;;;;;;;5.15;76.23;96647.44;4976578;28;20055;-78
2024/03/13 06:49:49;;;;;;;1.77;1.58;;;;;;;5.22;76.06;96643.31;4990333;28;20055;-79
2024/03/13 06:52:17;;;;;;;3.72;2.00;;;;;;;5.28;76.25;96655.66;4963082;28;20082;-81
2024/03/13 06:54:45;;;;;;;2.50;1.60;;;;;;;5.35;76.41;96655.88;4976799;28;20072;-78
2024/03/13 06:57:13;;;;;;;2.20;1.63;;;;;;;5.50;76.39;96663.94;4950831;28;20542;-81
2024/03/13 06:59:44;;;;;;;3.97;1.90;;;;;;;5.67;76.12;96660.53;4959419;28;20079;-79
2024/03/13 07:02:13;;;;;;;2.53;1.60;;;;;;;5.82;76.11;96667.78;4958734;28;20047;-78
2024/03/13 07:04:42;;;;;;;3.08;1.88;;;;;;;5.93;75.63;96670.94;4958059;28;20055;-78
2024/03/13 07:07:10;;;;;;;2.22;1.88;;;;;;;6.04;75.74;96662.13;4955966;28;20054;-78
2024/03/13 07:09:39;;;;;;;2.63;1.65;;;;;;;6.13;75.38;96663.00;4955678;28;20082;-79
2024/03/13 07:12:07;;;;;;;2.13;1.67;;;;;;;6.26;75.32;96672.97;4955889;28;20109;-79
2024/03/13 07:14:35;;;;;;;2.70;2.22;;;;;;;6.42;74.89;96670.44;4956206;28;20047;-79
2024/03/13 07:17:02;;;;;;;3.00;2.35;;;;;;;6.52;74.63;96671.16;4955287;28;20437;-79
2024/03/13 07:19:31;;;;;;;2.33;1.92;;;;;;;6.57;74.51;96671.50;4957128;28;20142;-79
2024/03/13 07:22:00;;;;;;;2.90;2.13;;;;;;;6.69;74.88;96691.97;4956780;28;20050;-79
2024/03/13 07:24:28;;;;;;;3.75;2.30;;;;;;;6.81;74.25;96686.34;4957288;28;20090;-79
2024/03/13 07:26:56;;;;;;;3.58;2.70;;;;;;;6.92;73.67;96684.47;4957163;28;20057;-79
2024/03/13 07:29:27;;;;;;;2.33;1.98;;;;;;;6.98;73.87;96692.44;4957004;28;20141;-79
2024/03/13 07:31:56;;;;;;;2.85;2.13;;;;;;;7.00;73.44;96689.69;4957513;28;20142;-79
2024/03/13 07:34:23;;;;;;;2.17;1.80;;;;;;;7.01;73.28;96692.09;4956937;28;20495;-78
2024/03/13 07:36:51;;;;;;;2.60;2.13;;;;;;;7.14;73.92;96690.84;4956666;28;20435;-79
2024/03/13 07:39:20;;;;;;;2.45;1.77;;;;;;;7.27;73.69;96690.41;4957245;28;20058;-78
2024/03/13 07:41:48;;;;;;;2.15;1.70;;;;;;;7.37;72.96;96686.69;4957326;28;20057;-79
2024/03/13 07:44:16;;;;;;;2.28;1.55;;;;;;;7.47;72.80;96693.53;4969697;28;20066;-79
2024/03/13 07:46:44;;;;;;;2.58;1.73;;;;;;;7.54;72.40;96687.53;4978984;28;20062;-79
2024/03/13 07:49:13;;;;;;;1.55;1.35;;;;;;;7.60;72.46;96686.06;4969382;28;20085;-79
2024/03/13 07:51:42;;;;;;;2.50;2.10;;;;;;;7.79;72.59;96683.16;4958531;28;20051;-79
2024/03/13 07:54:09;;;;;;;2.20;2.00;;;;;;;7.95;72.19;96694.53;4961213;28;20801;-79
2024/03/13 07:56:37;;;;;;;3.70;2.03;;;;;;;8.15;72.16;96688.00;4957606;28;20082;-79
2024/03/13 07:59:06;;;;;;;4.03;2.03;;;;;;;8.44;71.39;96694.53;4957217;28;20113;-79
2024/03/13 08:01:40;;;;;;;2.85;1.75;;;;;;;8.77;69.81;96700.44;4956904;28;20137;-79
2024/03/13 08:04:08;;;;;;;2.35;1.90;;;;;;;9.17;69.49;96708.25;4956509;28;20135;-79
2024/03/13 08:06:38;;;;;;;4.32;1.70;;;;;;;9.58;68.40;96697.63;4956795;28;20051;-79
2024/03/13 08:09:27;;;;;;;1.95;1.75;;;;;;;9.96;67.33;96706.28;4959968;28;20090;-79
2024/03/13 08:12:13;;;;;;;1.42;1.33;;;;;;;10.17;66.05;96702.22;4960241;28;20134;-79
2024/03/13 08:14:58;;;;;;;1.40;1.30;;;;;;;10.31;65.25;96699.66;4959235;28;20426;-79
2024/03/13 08:17:45;;;;;;;1.83;1.45;;;;;;;10.47;64.71;96701.31;4959153;28;20057;-79
2024/03/13 08:20:30;;;;;;;1.63;1.25;;;;;;;10.77;65.02;96708.34;4959528;28;20073;-79
2024/03/13 08:23:16;;;;;;;2.25;1.80;;;;;;;11.24;64.04;96699.28;4962822;28;20061;-79
2024/03/13 08:26:01;;;;;;;2.10;1.73;;;;;;;11.36;62.37;96708.25;4962976;28;20525;-79
2024/03/13 08:28:47;;;;;;;2.53;1.98;;;;;;;11.21;62.23;96708.28;4963053;28;20062;-79
2024/03/13 08:31:32;;;;;;;2.35;1.92;;;;;;;11.18;62.33;96700.03;4962966;28;20161;-78
2024/03/13 08:34:18;;;;;;;2.05;1.85;;;;;;;11.06;62.50;96710.94;4962853;28;20255;-79
2024/03/13 08:37:03;;;;;;;2.40;1.83;;;;;;;11.09;62.45;96713.19;4962749;28;20144;-79
2024/03/13 08:39:49;;;;;;;2.13;1.92;;;;;;;11.30;61.84;96709.00;4962811;28;20081;-79
2024/03/13 08:42:35;;;;;;;3.72;2.10;;;;;;;11.51;61.69;96716.88;4962571;28;20082;-79
2024/03/13 08:45:20;;;;;;;2.33;2.13;;;;;;;11.52;61.96;96721.13;4962564;28;20081;-79
2024/03/13 08:48:07;;;;;;;2.83;2.00;;;;;;;11.41;62.14;96721.56;4962574;28;20054;-79
2024/03/13 08:50:52;;;;;;;1.67;1.58;;;;;;;11.27;62.57;96719.81;4962926;28;20105;-79
2024/03/13 08:53:38;;;;;;;4.43;2.20;;;;;;;11.26;62.96;96719.00;4962845;28;20089;-79
2024/03/13 08:56:24;;;;;;;3.67;2.05;;;;;;;11.21;62.98;96723.16;4962415;28;20061;-79
2024/03/13 08:59:11;;;;;;;3.08;2.30;;;;;;;11.24;63.21;96722.78;4962421;28;20437;-79
2024/03/13 09:01:56;;;;;;;3.15;2.80;;;;;;;11.24;62.72;96728.81;4962859;28;20218;-79
2024/03/13 09:04:41;;;;;;;2.97;2.65;;;;;;;11.28;62.94;96737.09;4962516;28;20533;-79
2024/03/13 09:07:29;;;;;;;2.85;2.65;;;;;;;11.24;63.02;96741.88;4962084;28;20054;-79
2024/03/13 09:09:57;;;;;;;2.45;2.25;;;;;;;11.16;63.24;96738.56;4960367;28;20053;-79
2024/03/13 09:12:25;;;;;;;2.58;2.30;;;;;;;11.03;63.96;96740.00;4959753;28;20101;-79
2024/03/13 09:14:52;;;;;;;2.88;2.28;;;;;;;10.95;64.22;96744.50;4959751;28;20106;-79
2024/03/13 09:17:20;;;;;;;2.35;2.15;;;;;;;10.82;64.36;96743.34;4979947;23;20243;-80
2024/03/13 09:19:49;;;;;;;2.40;2.20;;;;;;;10.70;64.75;96740.34;4960185;28;20548;-80
2024/03/13 09:22:18;;;;;;;3.08;2.75;;;;;;;10.62;65.49;96737.81;4959637;28;20047;-80
2024/03/13 09:24:46;;;;;;;3.42;3.13;;;;;;;10.56;65.59;96737.72;4959431;28;20043;-80
2024/03/13 09:27:14;;;;;;;6.15;3.53;;;;;;;10.50;66.50;96741.88;4957477;28;20052;-80
2024/03/13 09:29:42;;;;;;;4.25;3.50;;;;;;;10.47;66.32;96737.81;4939853;29;20066;-80
2024/03/13 09:32:10;;;;;;;3.50;3.20;;;;;;;10.45;66.39;96746.78;4939784;28;20047;-80
2024/03/13 09:34:37;;;;;;;4.07;3.67;;;;;;;10.39;66.70;96747.53;4941604;29;20085;-80
2024/03/13 09:37:09;;;;;;;3.70;3.22;;;;;;;10.36;67.07;96742.63;4941482;28;20070;-80
2024/03/13 09:39:37;;;;;;;3.85;3.17;;;;;;;10.31;67.24;96751.78;4941481;29;20059;-80
2024/03/13 09:42:06;;;;;;;3.47;3.10;;;;;;;10.26;67.54;96748.88;4939849;29;20055;-80
2024/03/13 09:44:34;;;;;;;7.10;3.55;;;;;;;10.20;67.86;96754.78;4939864;29;20051;-80
2024/03/13 09:47:05;;;;;;;5.80;4.00;;;;;;;10.18;68.03;96753.34;4939810;29;20052;-80
2024/03/13 09:49:33;;;;;;;3.67;3.25;;;;;;;10.20;68.23;96754.00;4940509;29;20055;-80
2024/03/13 09:52:01;;;;;;;3.75;3.20;;;;;;;10.23;69.76;96757.06;4939899;29;20043;-80
2024/03/13 09:54:28;;;;;;;4.00;3.20;;;;;;;10.29;69.23;96752.97;4939871;29;20496;-80
2024/03/13 09:56:56;;;;;;;2.80;2.50;;;;;;;10.34;70.06;96760.25;4939378;29;20130;-80
2024/03/13 09:59:24;;;;;;;2.97;1.55;;;;;;;10.39;69.38;96756.16;4939247;29;20062;-80
2024/03/13 10:01:52;;;;;;;2.05;1.00;;;;;;;10.39;69.12;96763.16;4939455;29;20138;-80
2024/03/13 10:04:24;;;;;;;1.38;1.08;;;;;;;10.37;69.37;96760.72;4939409;29;20043;-80
2024/03/13 10:06:55;;;;;;;1.20;1.10;;;;;;;10.36;69.77;96764.31;4939958;29;20062;-79
2024/03/13 10:09:25;;;;;;;1.45;1.10;;;;;;;10.37;70.30;96760.72;4939399;29;20055;-79
2024/03/13 10:11:53;;;;;;;1.63;1.25;;;;;;;10.37;69.71;96759.91;4939222;29;20097;-79
2024/03/13 10:14:21;;;;;;;1.38;1.27;;;;;;;10.33;70.26;96758.66;4939131;29;20063;-79
2024/03/13 10:16:50;;;;;;;1.95;1.30;;;;;;;10.33;70.27;96766.47;4938917;29;20066;-79
2024/03/13 10:19:24;;;;;;;1.52;1.40;;;;;;;10.34;69.78;96760.25;4939794;29;20055;-79
2024/03/13 10:21:53;;;;;;;0.90;0.90;;;;;;;10.39;70.49;96763.16;4938709;29;20521;-79
2024/03/13 10:24:22;;;;;;;2.67;0.98;;;;;;;10.41;71.17;96767.22;4939072;29;20070;-79
2024/03/13 10:26:51;;;;;;;0.77;0.77;;;;;;;10.47;71.20;96770.91;4939321;29;20126;-79
2024/03/13 10:29:19;;;;;;;1.65;1.08;;;;;;;10.49;70.00;96768.91;4938741;29;20094;-79
2024/03/13 10:31:46;;;;;;;1.73;1.15;;;;;;;10.51;71.11;96769.56;4945884;28;20067;-80
2024/03/13 10:34:15;;;;;;;1.45;1.00;;;;;;;10.53;70.90;96775.41;4963235;28;20075;-80
2024/03/13 10:36:43;;;;;;;1.27;0.90;;;;;;;10.53;71.60;96770.19;4962009;28;20055;-80
2024/03/13 10:39:11;;;;;;;1.75;1.30;;;;;;;10.53;71.11;96775.41;4952697;29;20052;-80
2024/03/13 10:41:44;;;;;;;1.10;0.70;;;;;;;10.51;71.37;96777.38;4938851;29;20109;-80
2024/03/13 10:44:12;;;;;;;;;;;;;;;10.47;71.61;96776.09;4938721;29;20495;-80
2024/03/13 10:46:41;;;;;;;1.13;0.80;;;;;;;10.43;71.16;96770.47;4953941;28;19922;-80
2024/03/13 10:49:10;;;;;;;0.60;0.60;;;;;;;10.46;72.22;96770.09;4938500;29;20054;-80
2024/03/13 10:51:38;;;;;;;2.78;1.15;;;;;;;10.46;71.26;96764.88;4938381;29;20538;-79
2024/03/13 10:54:06;;;;;;;3.60;0.85;;;;;;;10.43;71.39;96774.84;4938231;29;20549;-80
2024/03/13 10:56:34;;;;;;;1.65;0.80;;;;;;;10.44;72.05;96766.03;4938614;29;20062;-80
2024/03/13 10:59:02;;;;;;;3.42;1.00;;;;;;;10.48;72.62;96762.09;4938110;29;20051;-80
2024/03/13 11:01:33;;;;;;;2.40;0.70;;;;;;;10.52;72.83;96765.97;4938933;29;20058;-80
2024/03/13 11:04:01;;;;;;;0.85;0.52;;;;;;;10.54;72.42;96766.63;4938332;29;20047;-80
2024/03/13 11:06:29;;;;;;;0.65;0.50;;;;;;;10.57;72.31;96766.25;4938237;29;20105;-80
2024/03/13 11:08:57;;;;;;;0.65;0.65;;;;;;;10.60;72.17;96767.69;4938294;29;20054;-80
2024/03/13 11:11:25;;;;;;;2.05;0.50;;;;;;;10.65;72.96;96767.97;4938159;29;20051;-80
2024/03/13 11:13:57;;;;;;;0.75;0.55;;;;;;;10.69;72.60;96762.22;4938471;29;20054;-79
2024/03/13 11:16:24;;;;;;;1.67;0.60;;;;;;;10.71;72.28;96767.25;4938239;29;20079;-80
2024/03/13 11:18:52;;;;;;;0.50;0.50;;;;;;;10.72;72.48;96764.47;4937756;29;20085;-80
2024/03/13 11:21:20;;;;;;;0.85;0.52;;;;;;;10.74;72.83;96766.09;4937907;29;20499;-80
2024/03/13 11:23:48;;;;;;;1.48;0.43;;;;;;;10.76;72.62;96770.16;4937657;29;20054;-80
2024/03/13 11:26:16;;;;;;;1.42;0.65;;;;;;;10.79;72.86;96764.56;4937753;29;20043;-80
2024/03/13 11:28:45;;;;;;;1.77;0.40;;;;;;;10.87;73.23;96766.28;4938170;29;20554;-80
2024/03/13 11:31:13;;;;;;;1.70;0.60;;;;;;;10.91;73.19;96762.31;4938132;29;20059;-79
2024/03/13 11:33:41;;;;;;;0.45;0.35;;;;;;;10.98;73.12;96767.66;4938015;29;20063;-80
2024/03/13 11:36:10;;;;;;;3.80;0.57;;;;;;;10.99;73.17;96758.81;4938878;29;20047;-79
2024/03/13 11:38:38;;;;;;;0.20;0.20;;;;;;;11.02;73.53;96761.06;4937946;29;20515;-80
2024/03/13 11:41:06;;;;;;;1.67;0.50;;;;;;;11.05;73.65;96753.69;4938625;29;20082;-80
2024/03/13 11:43:34;;;;;;;1.48;0.60;;;;;;;11.07;73.42;96751.69;4939242;29;20051;-80
2024/03/13 11:46:03;;;;;;;1.85;0.65;;;;;;;11.07;72.91;96759.53;4937739;29;20058;-80
2024/03/13 11:48:30;;;;;;;1.58;0.45;;;;;;;11.07;73.18;96749.09;4937940;29;20059;-80
2024/03/13 11:51:10;;;;;;;2.00;0.60;;;;;;;11.11;74.04;96752.97;4938106;29;20058;-80
2024/03/13 11:53:40;;;;;;;2.15;0.90;;;;;;;11.14;73.04;96754.41;4938141;29;20059;-80
2024/03/13 11:56:09;;;;;;;1.42;0.77;;;;;;;11.15;73.12;96753.44;4941260;29;20075;-80
2024/03/13 11:58:38;;;;;;;0.47;0.47;;;;;;;11.16;73.06;96754.22;4944525;29;20047;-80
2024/03/13 12:01:08;;;;;;;1.33;0.50;;;;;;;11.18;73.36;96744.41;4944387;29;20051;-81
2024/03/13 12:03:42;;;;;;;0.90;0.57;;;;;;;11.21;73.54;96742.22;4945055;29;20499;-80
2024/03/13 12:06:36;;;;;;;2.88;0.63;;;;;;;11.25;73.47;96748.72;4944061;29;20051;-81
2024/03/13 12:09:09;;;;;;;2.50;0.68;;;;;;;11.27;73.16;96751.16;4959590;28;20523;-81
2024/03/13 12:11:37;;;;;;;1.80;0.80;;;;;;;11.28;73.03;96748.38;4944798;29;20062;-81
2024/03/13 12:14:06;;;;;;;1.77;0.80;;;;;;;11.28;73.44;96752.75;4943671;29;20102;-80
2024/03/13 12:16:34;;;;;;;2.53;0.52;;;;;;;11.28;73.60;96744.91;4943924;29;20082;-80
2024/03/13 12:19:03;;;;;;;2.33;0.80;;;;;;;11.30;73.47;96745.56;4943475;29;20141;-80
2024/03/13 12:21:34;;;;;;;5.55;1.02;;;;;;;11.34;73.50;96736.38;4944872;29;20078;-80
2024/03/13 12:24:02;;;;;;;4.25;1.17;;;;;;;11.38;73.04;96727.16;4945037;29;20523;-80
2024/03/13 12:26:30;;;;;;;1.52;0.65;;;;;;;11.42;73.46;96728.44;4965519;29;20058;-81
2024/03/13 12:28:57;;;;;;;1.65;0.98;;;;;;;11.45;73.03;96732.47;4965432;29;20035;-80
2024/03/13 12:31:26;;;;;;;1.92;0.82;;;;;;;11.48;73.04;96732.13;4955329;29;20093;-80
2024/03/13 12:33:58;;;;;;;1.33;0.90;;;;;;;11.48;73.08;96732.13;4949060;29;20055;-81
2024/03/13 12:36:28;;;;;;;1.50;0.93;;;;;;;11.48;73.04;96732.91;4949522;29;20126;-80
2024/03/13 12:38:57;;;;;;;2.08;0.82;;;;;;;11.48;73.53;96732.91;4947710;29;20078;-81
2024/03/13 12:41:25;;;;;;;2.30;1.00;;;;;;;11.51;73.20;96729.94;4945194;29;20058;-80
2024/03/13 12:43:53;;;;;;;1.83;1.00;;;;;;;11.51;73.58;96727.31;4945697;29;20075;-80
2024/03/13 12:46:21;;;;;;;1.10;1.00;;;;;;;11.50;73.34;96728.31;4944904;29;20083;-81
2024/03/13 12:48:49;;;;;;;2.35;1.13;;;;;;;11.48;73.47;96721.66;4945029;28;20115;-81